Time;durP1;ratioP1;P1;durP2;ratioP2;P2;SDS_P1;SDS_P2;PMS_P1;PMS_P2;Temp;Humidity;BMP_temperature;BMP_pressure;BME280_temperature;BME280_humidity;BME280_pressure;Samples;Min_cycle;Max_cycle;Signal;HPM_P1;HPM_P2
2021/05/06 00:02:01;;;;;;;2.95;1.95;;;;;;;11.60;87.02;92701.94;5098386;28;20135;-93
2021/05/06 00:10:52;;;;;;;2.00;1.67;;;;;;;11.23;86.54;92656.75;5056171;28;20075;-91
2021/05/06 00:30:12;;;;;;;2.53;1.80;;;;;;;10.67;86.09;92621.97;5109038;28;20096;-91
2021/05/06 00:32:41;;;;;;;2.10;0.93;;;;;;;11.26;85.91;92720.56;5113689;28;20064;-91
2021/05/06 00:35:08;;;;;;;2.22;1.15;;;;;;;10.39;85.99;92591.78;5108976;28;20059;-91
2021/05/06 00:37:44;;;;;;;1.27;0.88;;;;;;;10.89;84.87;92675.34;5111523;28;20067;-90
2021/05/06 00:40:15;;;;;;;1.08;0.88;;;;;;;11.14;85.10;92715.44;5113179;28;20047;-89
2021/05/06 00:43:12;;;;;;;1.40;0.93;;;;;;;10.99;84.96;92704.81;5113061;28;20043;-90
2021/05/06 00:56:55;;;;;;;0.93;0.73;;;;;;;10.38;85.36;92662.88;5029599;28;20192;-91
2021/05/06 00:59:35;;;;;;;5.07;0.90;;;;;;;10.42;85.85;92676.84;5097773;28;20116;-91
2021/05/06 01:02:23;;;;;;;2.35;1.25;;;;;;;10.83;85.77;92745.59;5112656;27;20051;-92
2021/05/06 01:04:52;;;;;;;1.60;0.95;;;;;;;10.47;86.10;92704.47;5112791;27;20055;-90
2021/05/06 01:07:43;;;;;;;2.30;1.27;;;;;;;10.35;86.00;92683.88;5112256;28;20685;-89
2021/05/06 01:10:28;;;;;;;5.43;2.13;;;;;;;10.65;85.86;92752.38;5112356;28;20044;-91
2021/05/06 01:12:55;;;;;;;2.38;1.20;;;;;;;10.49;85.76;92720.44;5112492;28;20116;-90
2021/05/06 01:15:24;;;;;;;1.40;1.10;;;;;;;10.33;84.73;92698.72;5112783;28;20505;-91
2021/05/06 01:17:50;;;;;;;2.08;1.50;;;;;;;10.47;84.12;92716.53;5113229;28;20048;-91
2021/05/06 01:20:23;;;;;;;2.17;1.63;;;;;;;10.58;84.23;92744.00;5112172;28;20051;-91
2021/05/06 01:22:51;;;;;;;2.65;1.73;;;;;;;10.37;84.07;92728.06;5112230;28;20127;-90
2021/05/06 01:25:18;;;;;;;3.28;1.30;;;;;;;10.34;84.37;92735.44;5112132;28;20051;-91
2021/05/06 01:27:52;;;;;;;3.55;2.05;;;;;;;10.35;84.81;92752.41;5112282;28;20431;-89
2021/05/06 01:30:27;;;;;;;5.57;2.05;;;;;;;9.51;85.58;92628.19;5112024;28;20079;-91
2021/05/06 01:33:02;;;;;;;2.28;1.50;;;;;;;10.18;85.78;92734.28;5112496;28;20055;-90
2021/05/06 01:35:33;;;;;;;1.93;1.40;;;;;;;9.99;85.58;92699.19;5111817;28;20398;-91
2021/05/06 01:38:14;;;;;;;1.90;1.00;;;;;;;9.84;84.99;92673.16;5111527;28;20513;-90
2021/05/06 01:40:58;;;;;;;1.45;0.90;;;;;;;9.77;84.46;92678.38;5116010;28;20434;-89
2021/05/06 01:43:34;;;;;;;2.33;1.00;;;;;;;10.36;85.94;92770.16;5111818;28;20498;-90
2021/05/06 01:49:09;;;;;;;2.95;0.93;;;;;;;9.97;85.08;92695.28;5065763;28;20121;-91
2021/05/06 02:00:15;;;;;;;2.45;1.17;;;;;;;9.84;82.69;92683.41;5077131;28;20055;-90
2021/05/06 02:02:42;;;;;;;0.90;0.70;;;;;;;10.15;82.76;92743.97;5112160;28;20460;-88
2021/05/06 02:05:10;;;;;;;2.20;1.60;;;;;;;9.88;82.64;92711.00;5111329;28;20054;-89
2021/05/06 02:07:39;;;;;;;1.67;0.73;;;;;;;9.68;83.08;92684.81;5111527;28;20439;-89
2021/05/06 02:10:09;;;;;;;2.45;0.90;;;;;;;9.84;84.20;92709.84;5111571;27;20058;-89
2021/05/06 02:12:35;;;;;;;1.65;0.70;;;;;;;9.85;83.62;92728.56;5111223;28;20048;-91
2021/05/06 02:15:05;;;;;;;2.38;0.90;;;;;;;9.70;84.25;92711.00;5110904;28;20101;-89
2021/05/06 02:17:32;;;;;;;0.90;0.70;;;;;;;9.63;84.65;92717.00;5111134;28;20051;-90
2021/05/06 02:19:59;;;;;;;2.38;1.30;;;;;;;9.42;85.54;92689.25;5110999;28;20517;-89
2021/05/06 02:22:26;;;;;;;1.50;1.00;;;;;;;9.45;86.06;92693.94;5111370;28;20051;-90
2021/05/06 02:24:52;;;;;;;1.45;0.93;;;;;;;9.81;85.63;92755.69;5111194;28;20134;-89
2021/05/06 02:27:20;;;;;;;1.38;0.88;;;;;;;9.88;86.27;92780.25;5110991;28;20126;-90
2021/05/06 02:29:47;;;;;;;1.45;0.88;;;;;;;9.87;86.75;92793.28;5110845;28;20097;-89
2021/05/06 02:32:14;;;;;;;1.10;0.80;;;;;;;9.86;86.96;92784.81;5111309;28;20047;-88
2021/05/06 02:34:41;;;;;;;1.88;1.15;;;;;;;9.45;87.08;92742.66;5109952;28;20147;-89
2021/05/06 02:37:08;;;;;;;1.13;0.82;;;;;;;9.76;87.80;92787.88;5110580;28;20044;-86
2021/05/06 02:39:34;;;;;;;1.80;1.00;;;;;;;8.78;87.71;92652.66;5111761;28;20055;-88
2021/05/06 02:42:01;;;;;;;2.17;1.67;;;;;;;9.41;88.34;92749.19;5110683;28;20092;-90
2021/05/06 02:44:33;;;;;;;1.92;1.27;;;;;;;9.01;87.85;92676.88;5110573;27;20051;-91
2021/05/06 02:47:00;;;;;;;4.00;1.50;;;;;;;9.69;87.78;92792.31;5110655;28;20047;-89
2021/05/06 02:52:35;;;;;;;2.05;1.08;;;;;;;9.58;88.44;92808.41;5101584;28;20062;-91
2021/05/06 02:55:31;;;;;;;3.30;1.48;;;;;;;9.07;88.10;92731.59;5111252;28;20044;-93
2021/05/06 02:58:01;;;;;;;7.75;1.75;;;;;;;9.45;87.87;92788.81;5111236;27;20093;-90
2021/05/06 03:03:13;;;;;;;2.88;1.65;;;;;;;9.27;87.47;92787.00;5110381;28;20058;-88
2021/05/06 03:05:40;;;;;;;6.93;1.70;;;;;;;8.93;88.20;92751.41;5110184;28;20139;-88
2021/05/06 03:08:11;;;;;;;2.30;1.10;;;;;;;9.18;88.05;92799.31;5110453;28;20049;-89
2021/05/06 03:11:10;;;;;;;2.78;1.52;;;;;;;9.29;88.17;92818.31;5110573;28;20043;-88
2021/05/06 03:28:04;;;;;;;1.27;0.93;;;;;;;8.54;88.99;92777.94;5056109;28;20040;-90
2021/05/06 03:30:59;;;;;;;1.63;1.08;;;;;;;8.36;88.54;92777.81;5110641;28;20043;-90
2021/05/06 03:41:40;;;;;;;1.92;1.35;;;;;;;7.84;91.73;92742.84;5110290;28;20055;-90
2021/05/06 03:44:24;;;;;;;2.13;1.00;;;;;;;8.19;91.75;92798.00;5109709;28;20071;-90
2021/05/06 04:17:27;;;;;;;3.70;1.58;;;;;;;8.86;89.27;92830.09;5112937;27;20647;-90
2021/05/06 04:26:25;;;;;;;2.10;1.35;;;;;;;9.00;87.49;92802.59;5114471;28;20059;-88
2021/05/06 04:37:00;;;;;;;3.67;1.73;;;;;;;9.92;86.90;92893.50;5113428;28;20912;-85
2021/05/06 04:42:35;;;;;;;5.13;2.58;;;;;;;10.51;84.88;92930.78;5110728;27;20510;-85
2021/05/06 04:56:02;;;;;;;2.35;1.80;;;;;;;11.32;81.09;92909.16;5113431;28;20058;-87
2021/05/06 04:58:53;;;;;;;3.55;1.88;;;;;;;11.58;79.27;92907.19;5113566;28;20052;-88
2021/05/06 05:04:08;;;;;;;6.20;2.15;;;;;;;12.16;75.96;92940.88;5112843;28;20457;-88
2021/05/06 05:06:38;;;;;;;4.13;2.03;;;;;;;11.80;75.96;92881.66;5116489;27;20048;-88
2021/05/06 05:09:18;;;;;;;3.05;2.13;;;;;;;12.23;75.68;92940.75;5112749;28;20047;-88
2021/05/06 05:11:51;;;;;;;2.88;1.90;;;;;;;12.02;75.33;92917.13;5113467;28;20473;-88
2021/05/06 05:14:35;;;;;;;6.22;2.30;;;;;;;12.39;74.15;92946.97;5112958;28;20510;-89
2021/05/06 05:20:06;;;;;;;2.83;2.03;;;;;;;12.45;70.13;92916.97;5112295;28;20422;-88
2021/05/06 05:25:24;;;;;;;2.97;1.90;;;;;;;12.81;70.11;92890.06;5076884;28;20058;-88
2021/05/06 05:27:52;;;;;;;2.85;1.50;;;;;;;13.00;69.50;92879.53;5112031;28;20487;-89
2021/05/06 05:30:28;;;;;;;3.35;1.42;;;;;;;12.76;68.45;92814.44;5112097;28;20134;-92
2021/05/06 05:32:58;;;;;;;2.65;1.45;;;;;;;13.90;67.82;92943.38;5112363;28;20063;-90
2021/05/06 05:35:34;;;;;;;3.97;2.35;;;;;;;13.57;66.76;92844.31;5111603;28;20177;-90
2021/05/06 05:38:09;;;;;;;4.82;1.92;;;;;;;13.95;65.28;92872.19;5111836;28;20051;-91
2021/05/06 05:45:09;;;;;;;3.03;2.15;;;;;;;14.41;62.44;92846.88;5113077;28;20051;-94
2021/05/06 05:56:04;;;;;;;3.40;1.70;;;;;;;16.46;53.56;92962.94;5063026;28;20051;-88
2021/05/06 05:58:31;;;;;;;2.00;1.20;;;;;;;16.31;52.26;92924.75;5111552;28;20063;-87
2021/05/06 06:00:59;;;;;;;3.88;1.10;;;;;;;16.23;53.43;92888.94;5111759;28;20043;-87
2021/05/06 06:03:25;;;;;;;3.08;1.27;;;;;;;16.56;50.74;92895.56;5111337;28;20048;-87
2021/05/06 06:05:54;;;;;;;2.42;0.80;;;;;;;16.49;48.22;92913.19;5111221;28;20048;-90
2021/05/06 06:08:25;;;;;;;2.15;0.90;;;;;;;16.46;49.69;92938.81;5111267;28;20055;-89
2021/05/06 06:10:51;;;;;;;1.10;0.70;;;;;;;16.82;49.33;92929.34;5111450;28;20052;-91
2021/05/06 06:13:18;;;;;;;2.92;1.30;;;;;;;17.53;50.53;92987.94;5112306;28;20888;-89
2021/05/06 06:15:59;;;;;;;3.67;1.13;;;;;;;17.16;47.91;92980.06;5114641;28;20502;-90
2021/05/06 06:18:33;;;;;;;3.53;1.17;;;;;;;17.35;49.96;92961.41;5110942;27;20905;-92
2021/05/06 06:21:03;;;;;;;3.03;1.23;;;;;;;17.91;49.61;92975.44;5110611;28;20507;-90
2021/05/06 06:24:34;;;;;;;1.13;0.70;;;;;;;18.22;46.15;92946.06;5110915;28;20112;-92
2021/05/06 06:27:08;;;;;;;1.02;0.50;;;;;;;18.35;44.13;93022.75;5110259;28;20458;-93
2021/05/06 06:29:36;;;;;;;4.00;0.88;;;;;;;17.69;46.34;92892.59;5111805;27;20055;-91
2021/05/06 06:32:09;;;;;;;4.85;0.98;;;;;;;18.73;45.23;92973.75;5110785;28;20086;-89
2021/05/06 06:34:36;;;;;;;2.30;0.82;;;;;;;19.25;45.88;93004.78;5111428;28;20510;-89
2021/05/06 06:37:03;;;;;;;2.58;0.60;;;;;;;19.69;44.97;93007.66;5111319;28;20068;-90
2021/05/06 06:39:30;;;;;;;1.00;0.60;;;;;;;19.81;44.12;92983.88;5111047;28;20104;-89
2021/05/06 06:41:56;;;;;;;1.83;0.98;;;;;;;20.29;42.52;92996.25;5111129;28;20078;-91
2021/05/06 06:44:32;;;;;;;1.75;0.63;;;;;;;20.12;41.59;92978.41;5110976;28;20055;-92
2021/05/06 06:47:03;;;;;;;0.90;0.60;;;;;;;20.35;41.85;92995.16;5110471;28;20530;-92
2021/05/06 06:49:32;;;;;;;2.15;0.75;;;;;;;20.25;39.90;92949.09;5110597;28;20048;-94
2021/05/06 06:52:06;;;;;;;2.28;1.05;;;;;;;20.66;40.89;93014.94;5111148;28;20084;-91
2021/05/06 06:54:33;;;;;;;0.70;0.43;;;;;;;20.83;40.63;93017.88;5110971;28;20053;-90
2021/05/06 06:57:00;;;;;;;0.93;0.55;;;;;;;21.05;40.15;93021.84;5110791;28;20063;-91
2021/05/06 06:59:29;;;;;;;1.48;0.50;;;;;;;20.44;38.03;92966.63;5110289;28;20055;-91
2021/05/06 07:08:36;;;;;;;2.58;0.73;;;;;;;20.25;40.56;92912.56;5027391;28;20068;-91
2021/05/06 07:20:30;;;;;;;0.75;0.40;;;;;;;21.25;37.53;92980.06;4925590;28;20101;-93
2021/05/06 07:23:53;;;;;;;0.88;0.60;;;;;;;21.65;39.38;93038.03;5039692;28;20099;-95
2021/05/06 07:37:28;;;;;;;2.65;0.50;;;;;;;20.70;41.17;93031.59;5020541;28;20119;-96
2021/05/06 07:43:51;;;;;;;1.20;0.50;;;;;;;21.02;39.32;93029.44;4912055;29;20122;-96
2021/05/06 07:55:55;;;;;;;1.45;0.63;;;;;;;21.37;38.47;92996.09;4952887;28;20047;-94
2021/05/06 07:58:55;;;;;;;2.30;1.10;;;;;;;20.87;38.70;92962.53;5063526;28;20056;-95
2021/05/06 08:01:29;;;;;;;4.60;1.35;;;;;;;21.60;39.71;93020.59;5079863;28;20486;-94
2021/05/06 08:04:02;;;;;;;1.75;1.00;;;;;;;20.42;39.46;93005.25;5090818;28;20056;-94
2021/05/06 08:06:28;;;;;;;1.05;0.60;;;;;;;20.80;40.42;92983.72;5089554;28;20135;-93
2021/05/06 08:08:54;;;;;;;1.23;1.10;;;;;;;20.84;38.14;92932.50;5088973;28;20071;-93
2021/05/06 08:11:22;;;;;;;1.00;0.50;;;;;;;21.02;36.81;92932.84;5089156;28;20055;-92
2021/05/06 08:13:50;;;;;;;3.70;0.50;;;;;;;20.52;38.22;92910.44;5088363;28;20427;-93
2021/05/06 08:16:46;;;;;;;2.08;0.75;;;;;;;20.90;38.04;93037.66;5088781;28;20290;-96
2021/05/06 08:22:50;;;;;;;2.10;0.65;;;;;;;20.55;38.98;92954.25;4958881;28;20124;-95
2021/05/06 08:25:23;;;;;;;1.52;0.40;;;;;;;20.44;38.47;92893.59;5092635;28;20090;-94
2021/05/06 08:28:29;;;;;;;0.93;0.50;;;;;;;20.63;39.42;93031.13;5093393;28;20052;-96
2021/05/06 08:40:20;;;;;;;2.17;0.70;;;;;;;21.06;39.12;93036.44;5060504;28;20079;-92
2021/05/06 08:42:53;;;;;;;0.70;0.50;;;;;;;21.41;37.27;93002.31;5089879;28;20813;-95
2021/05/06 08:45:27;;;;;;;1.10;0.45;;;;;;;21.69;35.01;92929.25;5088185;28;20131;-93
2021/05/06 08:48:03;;;;;;;1.45;0.43;;;;;;;22.41;33.90;92965.75;5088232;28;20097;-94
2021/05/06 08:51:05;;;;;;;1.13;0.68;;;;;;;22.27;34.65;92921.25;5086815;28;20392;-96
2021/05/06 08:53:34;;;;;;;0.98;0.73;;;;;;;21.82;34.90;93019.28;5067858;28;20056;-92
2021/05/06 08:56:00;;;;;;;1.05;0.43;;;;;;;20.45;36.17;93002.09;5090126;28;20040;-92
2021/05/06 08:58:27;;;;;;;2.17;1.00;;;;;;;21.00;37.33;93045.38;5091014;28;20427;-92
2021/05/06 09:00:53;;;;;;;2.03;0.47;;;;;;;20.47;36.22;92923.56;5091687;28;20044;-90
2021/05/06 09:03:21;;;;;;;2.70;0.57;;;;;;;21.05;37.04;92995.72;5091894;28;20063;-91
2021/05/06 09:06:20;;;;;;;13.65;0.73;;;;;;;21.74;36.94;93039.00;5093317;28;20051;-93
2021/05/06 09:08:53;;;;;;;1.25;0.40;;;;;;;21.96;34.31;92977.50;5092593;28;20056;-91
2021/05/06 09:11:28;;;;;;;1.92;0.75;;;;;;;22.48;34.87;92960.09;5097029;28;20495;-92
2021/05/06 09:14:00;;;;;;;;;;;;;;;22.55;32.68;93039.84;5100277;28;20126;-94
2021/05/06 09:16:33;;;;;;;0.85;0.50;;;;;;;22.72;34.47;93011.56;5102593;28;19927;-91
2021/05/06 09:19:08;;;;;;;0.75;0.52;;;;;;;22.53;32.76;93020.25;5101126;28;20113;-90
2021/05/06 09:21:36;;;;;;;1.02;0.43;;;;;;;22.68;33.26;92991.19;5100694;28;20151;-87
2021/05/06 09:24:16;;;;;;;0.50;0.30;;;;;;;22.99;33.86;93007.38;5101181;27;20051;-91
2021/05/06 09:26:43;;;;;;;0.63;0.38;;;;;;;22.45;32.60;92981.66;5102684;28;20072;-90
2021/05/06 09:29:14;;;;;;;1.63;0.50;;;;;;;22.03;32.83;92936.03;5101141;28;20123;-90
2021/05/06 09:31:45;;;;;;;1.13;0.63;;;;;;;21.83;33.46;92999.13;5099248;28;20054;-90
2021/05/06 09:34:13;;;;;;;2.90;1.50;;;;;;;21.83;34.64;92996.50;5101701;28;20046;-88
2021/05/06 09:36:43;;;;;;;1.02;0.63;;;;;;;21.32;34.54;93035.34;5090976;28;20519;-90
2021/05/06 09:39:10;;;;;;;12.75;1.38;;;;;;;21.76;34.78;93031.63;5110073;28;20050;-90
2021/05/06 09:41:39;;;;;;;1.13;0.43;;;;;;;21.66;35.03;93036.22;5112193;28;20051;-89
2021/05/06 09:44:11;;;;;;;1.00;0.60;;;;;;;22.05;35.34;92989.91;5111760;28;20437;-88
2021/05/06 09:46:42;;;;;;;0.93;0.32;;;;;;;22.38;33.91;92943.56;5111860;28;20040;-87
2021/05/06 09:49:10;;;;;;;1.67;0.70;;;;;;;23.49;33.40;93027.59;5111400;28;20126;-89
2021/05/06 09:51:40;;;;;;;0.93;0.50;;;;;;;24.13;32.50;93028.56;5093183;28;20044;-89
2021/05/06 09:54:08;;;;;;;0.88;0.40;;;;;;;24.26;32.70;93024.34;5091118;28;20067;-88
2021/05/06 09:56:35;;;;;;;1.10;0.45;;;;;;;24.11;32.37;93031.50;5090823;28;20101;-90
2021/05/06 09:59:22;;;;;;;0.80;0.40;;;;;;;24.36;31.69;93033.78;5092069;28;20044;-95
2021/05/06 10:01:49;;;;;;;0.98;0.50;;;;;;;24.47;31.91;92969.47;5094547;28;20134;-90
2021/05/06 10:04:18;;;;;;;1.58;0.68;;;;;;;24.88;31.56;92972.09;5096563;28;20135;-89
2021/05/06 10:07:09;;;;;;;0.55;0.28;;;;;;;25.34;30.05;92970.00;5091432;28;20056;-91
2021/05/06 10:10:07;;;;;;;1.55;0.63;;;;;;;25.96;29.02;93002.34;5089578;28;20522;-91
2021/05/06 10:12:38;;;;;;;1.10;0.50;;;;;;;25.73;28.50;92920.22;5096430;28;20055;-93
2021/05/06 10:15:10;;;;;;;1.15;0.55;;;;;;;25.77;28.52;92926.38;5110993;28;20414;-93
2021/05/06 10:17:37;;;;;;;0.93;0.60;;;;;;;26.74;28.17;93014.88;5109883;28;20090;-88
2021/05/06 10:20:05;;;;;;;3.17;0.60;;;;;;;27.15;26.93;93008.19;5110241;28;20074;-90
2021/05/06 10:22:32;;;;;;;0.75;0.47;;;;;;;27.34;26.02;93012.25;5107903;28;20136;-89
2021/05/06 10:25:42;;;;;;;1.77;1.25;;;;;;;27.32;26.76;92959.06;5110764;28;20516;-95
2021/05/06 10:28:09;;;;;;;0.73;0.25;;;;;;;27.68;25.62;93021.03;5090603;28;20098;-91
2021/05/06 10:30:38;;;;;;;0.73;0.30;;;;;;;25.82;27.83;93009.66;5091924;28;20521;-92
2021/05/06 10:33:05;;;;;;;2.15;0.90;;;;;;;25.66;27.01;93025.09;5091870;28;20048;-90
2021/05/06 10:35:32;;;;;;;3.50;0.40;;;;;;;25.22;28.04;92950.34;5090337;28;20173;-90
2021/05/06 10:38:03;;;;;;;0.88;0.38;;;;;;;25.78;28.42;93019.22;5089915;28;20558;-89
2021/05/06 10:40:34;;;;;;;1.58;0.35;;;;;;;25.34;28.82;93026.00;5092022;28;20052;-90
2021/05/06 10:43:20;;;;;;;1.52;0.32;;;;;;;23.64;30.49;93026.50;5089240;28;20052;-92
2021/05/06 10:45:59;;;;;;;0.50;0.28;;;;;;;23.73;32.37;93027.34;5094423;28;20050;-88
2021/05/06 10:49:02;;;;;;;3.70;0.55;;;;;;;22.46;30.86;92949.97;5110009;28;20132;-90
2021/05/06 10:51:38;;;;;;;1.25;0.70;;;;;;;22.26;31.99;92904.78;5110862;28;20043;-91
2021/05/06 10:54:28;;;;;;;2.15;0.47;;;;;;;23.18;31.30;92981.81;5111205;28;20055;-88
2021/05/06 10:57:02;;;;;;;1.10;0.60;;;;;;;22.23;33.59;92942.00;5110076;28;20082;-92
2021/05/06 10:59:42;;;;;;;1.05;0.55;;;;;;;22.59;33.13;93021.69;5111064;28;20048;-90
2021/05/06 11:02:08;;;;;;;0.80;0.40;;;;;;;22.40;33.24;92977.28;5096811;28;20052;-87
2021/05/06 11:04:39;;;;;;;0.68;0.40;;;;;;;22.99;32.72;93036.19;5088625;28;20066;-89
2021/05/06 11:07:18;;;;;;;0.95;0.30;;;;;;;23.14;32.39;93030.63;5089458;28;20082;-87
2021/05/06 11:09:56;;;;;;;0.65;0.35;;;;;;;23.44;31.91;93046.06;5089576;28;20131;-88
2021/05/06 11:12:34;;;;;;;2.75;0.60;;;;;;;22.72;30.80;92951.34;5089181;28;20139;-90
2021/05/06 11:15:25;;;;;;;0.77;0.45;;;;;;;23.45;31.92;93045.78;5089819;28;20489;-87
2021/05/06 11:17:52;;;;;;;2.55;0.50;;;;;;;23.62;32.17;93045.13;5089497;28;20513;-88
2021/05/06 11:20:58;;;;;;;1.13;0.40;;;;;;;24.39;31.65;93041.09;5088504;28;20093;-89
2021/05/06 11:23:35;;;;;;;1.95;0.30;;;;;;;24.94;30.87;93023.41;5089393;28;20062;-92
2021/05/06 11:26:16;;;;;;;0.88;0.40;;;;;;;25.13;30.42;93048.66;5090659;28;20502;-88
2021/05/06 11:28:50;;;;;;;2.85;0.43;;;;;;;22.38;31.20;92943.56;5109258;28;20144;-93
2021/05/06 11:31:38;;;;;;;2.03;0.40;;;;;;;23.83;31.90;93041.31;5105073;28;20063;-88
2021/05/06 11:34:29;;;;;;;1.00;0.40;;;;;;;24.21;30.92;93034.94;5088941;28;20048;-87
2021/05/06 11:37:07;;;;;;;1.08;0.52;;;;;;;24.86;28.56;93032.81;5089252;28;20384;-90
2021/05/06 11:39:35;;;;;;;1.10;0.35;;;;;;;24.42;28.06;93032.59;5089698;28;20066;-89
2021/05/06 11:42:09;;;;;;;1.52;0.60;;;;;;;23.89;27.58;92917.59;5089089;28;20120;-92
2021/05/06 11:44:35;;;;;;;0.50;0.30;;;;;;;23.98;28.05;92970.09;5107469;28;20051;-88
2021/05/06 11:47:01;;;;;;;2.15;0.75;;;;;;;25.16;30.02;93027.03;5109593;28;20062;-86
2021/05/06 11:49:28;;;;;;;1.85;0.60;;;;;;;25.57;29.43;93018.00;5109553;28;20051;-89
2021/05/06 11:54:45;;;;;;;1.50;0.65;;;;;;;26.33;26.70;93017.78;5112321;28;20055;-89
2021/05/06 11:57:14;;;;;;;2.00;1.02;;;;;;;26.30;27.12;92952.59;5109932;28;20047;-92
2021/05/06 11:59:46;;;;;;;0.90;0.32;;;;;;;25.66;26.15;92944.34;5091518;28;20051;-89
2021/05/06 12:02:13;;;;;;;0.77;0.30;;;;;;;25.64;26.09;93011.50;5094792;28;20040;-88
2021/05/06 12:04:41;;;;;;;0.85;0.30;;;;;;;25.97;27.18;92982.06;5096820;28;20420;-90
2021/05/06 12:07:12;;;;;;;2.45;0.40;;;;;;;25.91;26.45;92957.00;5108766;28;20105;-87
2021/05/06 12:09:39;;;;;;;0.70;0.30;;;;;;;26.68;25.91;93014.28;5105577;28;20051;-88
2021/05/06 12:12:06;;;;;;;0.98;0.47;;;;;;;26.99;25.92;93001.91;5109376;28;20085;-86
2021/05/06 12:14:36;;;;;;;1.38;0.70;;;;;;;27.15;25.20;93002.91;5109366;28;20043;-88
2021/05/06 12:17:04;;;;;;;8.60;1.35;;;;;;;26.99;25.49;92957.91;5108378;28;20522;-89
2021/05/06 12:19:31;;;;;;;1.58;0.50;;;;;;;27.53;24.68;92982.03;5108215;28;20047;-91
2021/05/06 12:21:59;;;;;;;0.77;0.38;;;;;;;27.25;25.03;92954.31;5086966;28;20040;-87
2021/05/06 12:24:29;;;;;;;1.13;0.40;;;;;;;27.61;24.99;92958.25;5088269;28;20059;-87
2021/05/06 12:26:57;;;;;;;0.60;0.30;;;;;;;27.23;23.23;92996.06;5088160;28;20134;-88
2021/05/06 12:29:25;;;;;;;0.93;0.63;;;;;;;26.48;23.78;92950.66;5106820;28;20498;-88
2021/05/06 12:31:53;;;;;;;5.88;0.45;;;;;;;26.69;24.47;92944.69;5109269;28;20525;-88
2021/05/06 12:34:20;;;;;;;2.75;0.70;;;;;;;27.33;22.91;92990.41;5112660;28;20082;-88
2021/05/06 12:36:55;;;;;;;2.08;0.30;;;;;;;27.39;23.50;92984.94;5112663;28;20056;-90
2021/05/06 12:39:22;;;;;;;1.10;0.40;;;;;;;26.53;25.09;92981.34;5112280;28;20044;-89
2021/05/06 12:41:54;;;;;;;1.55;0.30;;;;;;;26.27;25.91;92982.97;5105437;28;20056;-89
2021/05/06 12:44:39;;;;;;;1.02;0.73;;;;;;;24.08;25.85;92936.84;5091886;28;20050;-90
2021/05/06 12:47:20;;;;;;;0.73;0.35;;;;;;;23.95;25.81;92930.59;5092079;28;20055;-89
2021/05/06 12:49:47;;;;;;;0.77;0.30;;;;;;;24.29;28.84;92939.72;5092436;28;20193;-88
2021/05/06 12:52:31;;;;;;;0.85;0.35;;;;;;;24.59;26.35;92908.50;5092315;28;20052;-91
2021/05/06 12:54:59;;;;;;;0.88;0.32;;;;;;;25.16;27.40;92982.34;5092281;28;20044;-91
2021/05/06 12:57:25;;;;;;;0.95;0.30;;;;;;;24.59;25.46;92976.78;5092483;28;20052;-90
2021/05/06 12:59:53;;;;;;;1.38;0.28;;;;;;;23.84;25.73;92932.69;5092356;28;20558;-90
2021/05/06 13:02:20;;;;;;;0.60;0.30;;;;;;;23.74;25.58;92992.19;5096441;28;20466;-91
2021/05/06 13:04:47;;;;;;;0.75;0.30;;;;;;;23.55;26.98;92933.91;5092555;28;20406;-89
2021/05/06 13:07:15;;;;;;;0.40;0.30;;;;;;;24.50;26.45;92962.81;5092327;28;20148;-89
2021/05/06 13:09:46;;;;;;;0.55;0.30;;;;;;;24.95;27.07;92983.69;5091955;28;20044;-89
2021/05/06 13:12:17;;;;;;;0.60;0.30;;;;;;;23.95;26.31;92988.28;5092386;28;20044;-88
2021/05/06 13:14:52;;;;;;;0.85;0.32;;;;;;;24.07;26.44;92985.13;5092094;28;20101;-90
2021/05/06 13:17:27;;;;;;;3.45;0.77;;;;;;;23.08;26.54;92911.31;5091971;28;20057;-90
2021/05/06 13:19:54;;;;;;;2.78;0.40;;;;;;;23.05;25.96;92925.00;5092006;28;20040;-89
2021/05/06 13:22:20;;;;;;;1.38;0.98;;;;;;;23.39;25.51;92968.31;5091851;28;20052;-88
2021/05/06 13:24:49;;;;;;;0.82;0.40;;;;;;;23.77;27.09;92961.97;5092141;28;20077;-90
2021/05/06 13:27:17;;;;;;;1.02;0.50;;;;;;;24.00;27.84;92962.72;5091930;28;20118;-89
2021/05/06 13:29:48;;;;;;;3.45;2.22;;;;;;;23.91;30.10;92921.75;5092221;28;20059;-89
2021/05/06 13:32:16;;;;;;;1.10;0.55;;;;;;;23.23;30.45;92895.25;5091862;28;20558;-90
2021/05/06 13:34:55;;;;;;;2.28;0.40;;;;;;;24.02;30.52;92904.69;5091513;28;20040;-90
2021/05/06 13:37:21;;;;;;;1.83;0.30;;;;;;;24.49;31.01;92948.16;5091562;28;20110;-89
2021/05/06 13:39:48;;;;;;;0.73;0.35;;;;;;;24.08;30.47;92918.50;5104686;28;20218;-90
2021/05/06 13:42:17;;;;;;;1.08;0.45;;;;;;;23.19;31.22;92889.06;5112306;28;20247;-89
2021/05/06 13:44:43;;;;;;;2.10;0.50;;;;;;;23.44;31.22;92865.19;5110759;28;20044;-92
2021/05/06 13:47:10;;;;;;;0.85;0.40;;;;;;;23.71;31.22;92960.53;5112000;28;20052;-89
2021/05/06 13:49:54;;;;;;;0.50;0.30;;;;;;;22.91;30.75;92833.38;5111497;28;20184;-91
2021/05/06 13:52:24;;;;;;;0.90;0.30;;;;;;;22.55;30.97;92856.63;5095720;28;20105;-91
2021/05/06 13:54:50;;;;;;;0.65;0.30;;;;;;;23.43;31.44;92944.91;5092260;28;20064;-89
2021/05/06 13:57:17;;;;;;;1.25;0.50;;;;;;;23.32;29.95;92868.34;5092116;28;20076;-89
2021/05/06 13:59:47;;;;;;;1.48;0.40;;;;;;;24.02;28.64;92947.44;5092065;28;20536;-92
2021/05/06 14:02:15;;;;;;;1.23;0.40;;;;;;;23.73;29.07;92879.72;5092011;28;20136;-89
2021/05/06 14:04:43;;;;;;;0.82;0.30;;;;;;;24.33;29.26;92939.91;5091900;28;20044;-88
2021/05/06 14:07:09;;;;;;;0.60;0.30;;;;;;;23.97;28.24;92883.88;5091919;28;20048;-88
2021/05/06 14:09:35;;;;;;;3.10;0.60;;;;;;;23.95;29.53;92936.63;5094603;28;20044;-89
2021/05/06 14:12:02;;;;;;;1.10;0.40;;;;;;;24.22;28.45;92911.31;5091677;28;20100;-87
2021/05/06 14:14:28;;;;;;;0.38;0.20;;;;;;;24.37;29.06;92930.34;5091280;28;20044;-88
2021/05/06 14:16:54;;;;;;;3.83;0.30;;;;;;;24.26;28.99;92888.63;5090880;28;20060;-87
2021/05/06 14:19:21;;;;;;;1.95;0.30;;;;;;;23.76;27.71;92898.22;5092148;28;20062;-89
2021/05/06 14:21:49;;;;;;;0.85;0.40;;;;;;;23.63;28.17;92948.91;5109541;28;20051;-87
2021/05/06 14:24:16;;;;;;;1.52;0.60;;;;;;;23.82;28.11;92951.34;5110034;28;20088;-87
2021/05/06 14:26:45;;;;;;;0.80;0.30;;;;;;;23.59;27.80;92890.28;5104520;27;20048;-87
2021/05/06 14:29:12;;;;;;;0.80;0.30;;;;;;;23.97;28.48;92910.84;5090848;28;20448;-86
2021/05/06 14:31:39;;;;;;;0.85;0.40;;;;;;;23.32;26.95;92884.88;5090536;28;20543;-89
2021/05/06 14:34:05;;;;;;;2.00;0.50;;;;;;;23.56;27.26;92945.94;5091369;28;20475;-88
2021/05/06 14:36:32;;;;;;;0.95;0.60;;;;;;;23.53;27.88;92947.31;5090423;28;20056;-89
2021/05/06 14:39:01;;;;;;;0.85;0.30;;;;;;;23.66;28.78;92929.97;5090665;28;20869;-88
2021/05/06 14:41:28;;;;;;;0.95;0.30;;;;;;;23.50;27.33;92940.03;5090482;28;20052;-89
2021/05/06 14:43:54;;;;;;;1.27;0.63;;;;;;;23.43;27.78;92934.44;5090471;28;20040;-88
2021/05/06 14:46:22;;;;;;;25.70;1.23;;;;;;;23.00;27.63;92847.28;5089997;28;20048;-89
2021/05/06 14:48:48;;;;;;;1.17;0.65;;;;;;;23.20;26.96;92918.66;5090197;28;20052;-90
2021/05/06 14:51:15;;;;;;;0.88;0.40;;;;;;;22.29;27.72;92870.19;5089973;28;20388;-89
2021/05/06 14:53:41;;;;;;;3.67;1.33;;;;;;;22.54;28.65;92938.06;5089740;28;20048;-89
2021/05/06 14:56:09;;;;;;;1.05;0.57;;;;;;;22.55;29.33;92937.75;5089104;28;20048;-87
2021/05/06 14:58:35;;;;;;;3.40;1.60;;;;;;;22.39;28.04;92858.75;5090251;28;20047;-88
2021/05/06 15:01:02;;;;;;;2.20;0.80;;;;;;;22.58;28.25;92885.91;5089705;28;20052;-88
2021/05/06 15:03:29;;;;;;;0.50;0.35;;;;;;;22.34;27.89;92929.50;5090270;28;20458;-88
2021/05/06 15:05:55;;;;;;;2.53;1.27;;;;;;;22.31;28.02;92937.16;5089899;28;20487;-87
2021/05/06 15:08:22;;;;;;;2.67;1.00;;;;;;;22.40;27.82;92915.25;5089613;28;20055;-87
2021/05/06 15:10:48;;;;;;;1.25;0.52;;;;;;;22.35;28.21;92922.44;5089702;28;20396;-87
2021/05/06 15:13:15;;;;;;;2.22;1.08;;;;;;;22.32;28.70;92938.69;5090123;28;20094;-87
2021/05/06 15:15:42;;;;;;;1.73;0.75;;;;;;;22.05;28.56;92922.69;5085782;28;20135;-89
2021/05/06 15:18:08;;;;;;;0.80;0.40;;;;;;;21.89;28.76;92919.53;5101640;28;20150;-90
2021/05/06 15:20:35;;;;;;;1.58;0.70;;;;;;;21.70;29.13;92899.47;5089651;28;20051;-88
2021/05/06 15:23:02;;;;;;;2.20;0.80;;;;;;;21.34;29.08;92838.06;5089640;28;20044;-90
2021/05/06 15:25:29;;;;;;;2.45;0.95;;;;;;;20.78;30.10;92803.91;5089942;28;20074;-90
2021/05/06 15:27:55;;;;;;;1.48;0.55;;;;;;;21.42;28.91;92917.66;5090627;28;20066;-88
2021/05/06 15:30:25;;;;;;;2.70;0.75;;;;;;;21.12;29.62;92909.22;5089448;28;20146;-90